sensor_id;sensor_type;location;lat;lon;timestamp;P1;durP1;ratioP1;P2;durP2;ratioP2
29218;SDS011;16421;50.202;7.852;2023-09-18T00:04:05;2.67;;;2.20;;
29218;SDS011;16421;50.202;7.852;2023-09-18T00:09:08;2.58;;;1.50;;
29218;SDS011;16421;50.202;7.852;2023-09-18T00:14:16;4.53;;;2.00;;
29218;SDS011;16421;50.202;7.852;2023-09-18T00:19:19;2.63;;;1.90;;
29218;SDS011;16421;50.202;7.852;2023-09-18T00:24:22;2.33;;;1.35;;
29218;SDS011;16421;50.202;7.852;2023-09-18T00:29:27;4.18;;;1.70;;
29218;SDS011;16421;50.202;7.852;2023-09-18T00:34:31;4.13;;;1.65;;
29218;SDS011;16421;50.202;7.852;2023-09-18T00:39:34;1.88;;;1.40;;
29218;SDS011;16421;50.202;7.852;2023-09-18T00:44:39;2.55;;;1.40;;
29218;SDS011;16421;50.202;7.852;2023-09-18T00:49:43;4.07;;;1.60;;
29218;SDS011;16421;50.202;7.852;2023-09-18T00:54:50;3.08;;;1.60;;
29218;SDS011;16421;50.202;7.852;2023-09-18T00:59:55;2.55;;;1.65;;
29218;SDS011;16421;50.202;7.852;2023-09-18T01:04:59;3.83;;;1.70;;
29218;SDS011;16421;50.202;7.852;2023-09-18T01:10:02;2.22;;;1.83;;
29218;SDS011;16421;50.202;7.852;2023-09-18T01:15:10;1.85;;;1.38;;
29218;SDS011;16421;50.202;7.852;2023-09-18T01:20:17;2.95;;;1.70;;
29218;SDS011;16421;50.202;7.852;2023-09-18T01:25:22;2.22;;;1.42;;
29218;SDS011;16421;50.202;7.852;2023-09-18T01:30:26;1.67;;;1.40;;
29218;SDS011;16421;50.202;7.852;2023-09-18T01:35:29;2.40;;;1.40;;
29218;SDS011;16421;50.202;7.852;2023-09-18T01:40:35;4.43;;;2.20;;
29218;SDS011;16421;50.202;7.852;2023-09-18T01:45:38;5.78;;;2.05;;
29218;SDS011;16421;50.202;7.852;2023-09-18T01:50:42;3.03;;;2.15;;
29218;SDS011;16421;50.202;7.852;2023-09-18T01:55:47;2.05;;;1.83;;
29218;SDS011;16421;50.202;7.852;2023-09-18T02:00:50;2.85;;;1.58;;
29218;SDS011;16421;50.202;7.852;2023-09-18T02:05:53;3.35;;;1.55;;
29218;SDS011;16421;50.202;7.852;2023-09-18T02:10:58;2.38;;;1.20;;
29218;SDS011;16421;50.202;7.852;2023-09-18T02:16:02;2.45;;;1.27;;
29218;SDS011;16421;50.202;7.852;2023-09-18T02:21:05;1.85;;;1.10;;
29218;SDS011;16421;50.202;7.852;2023-09-18T02:26:10;2.63;;;1.20;;
29218;SDS011;16421;50.202;7.852;2023-09-18T02:31:13;4.50;;;1.30;;
29218;SDS011;16421;50.202;7.852;2023-09-18T02:36:17;2.50;;;1.25;;
29218;SDS011;16421;50.202;7.852;2023-09-18T02:41:24;2.73;;;1.07;;
29218;SDS011;16421;50.202;7.852;2023-09-18T02:46:27;1.77;;;1.33;;
29218;SDS011;16421;50.202;7.852;2023-09-18T02:51:31;1.95;;;1.23;;
29218;SDS011;16421;50.202;7.852;2023-09-18T02:56:36;1.60;;;0.95;;
29218;SDS011;16421;50.202;7.852;2023-09-18T03:01:41;4.22;;;1.42;;
29218;SDS011;16421;50.202;7.852;2023-09-18T03:06:44;2.08;;;1.25;;
29218;SDS011;16421;50.202;7.852;2023-09-18T03:11:49;2.90;;;1.55;;
29218;SDS011;16421;50.202;7.852;2023-09-18T03:16:53;2.33;;;1.35;;
29218;SDS011;16421;50.202;7.852;2023-09-18T03:21:56;2.22;;;1.30;;
29218;SDS011;16421;50.202;7.852;2023-09-18T03:27:01;3.25;;;1.05;;
29218;SDS011;16421;50.202;7.852;2023-09-18T03:32:05;3.50;;;1.50;;
29218;SDS011;16421;50.202;7.852;2023-09-18T03:37:13;3.45;;;1.30;;
29218;SDS011;16421;50.202;7.852;2023-09-18T03:42:18;2.38;;;1.05;;
29218;SDS011;16421;50.202;7.852;2023-09-18T03:47:21;3.03;;;1.20;;
29218;SDS011;16421;50.202;7.852;2023-09-18T03:52:24;2.20;;;1.42;;
29218;SDS011;16421;50.202;7.852;2023-09-18T03:57:29;3.05;;;1.23;;
29218;SDS011;16421;50.202;7.852;2023-09-18T04:02:32;2.60;;;1.50;;
29218;SDS011;16421;50.202;7.852;2023-09-18T04:07:36;1.33;;;0.90;;
29218;SDS011;16421;50.202;7.852;2023-09-18T04:12:41;2.13;;;1.10;;
29218;SDS011;16421;50.202;7.852;2023-09-18T04:17:45;2.40;;;1.30;;
29218;SDS011;16421;50.202;7.852;2023-09-18T04:23:16;1.70;;;1.08;;
29218;SDS011;16421;50.202;7.852;2023-09-18T04:28:21;2.80;;;1.30;;
29218;SDS011;16421;50.202;7.852;2023-09-18T04:33:25;4.07;;;1.88;;
29218;SDS011;16421;50.202;7.852;2023-09-18T04:38:30;3.05;;;2.15;;
29218;SDS011;16421;50.202;7.852;2023-09-18T04:43:35;5.47;;;2.15;;
29218;SDS011;16421;50.202;7.852;2023-09-18T04:48:39;4.30;;;1.92;;
29218;SDS011;16421;50.202;7.852;2023-09-18T04:53:43;7.90;;;2.20;;
29218;SDS011;16421;50.202;7.852;2023-09-18T04:58:48;4.25;;;1.95;;
29218;SDS011;16421;50.202;7.852;2023-09-18T05:08:55;6.43;;;2.10;;
29218;SDS011;16421;50.202;7.852;2023-09-18T05:14:00;4.35;;;2.30;;
29218;SDS011;16421;50.202;7.852;2023-09-18T05:19:04;3.75;;;2.03;;
29218;SDS011;16421;50.202;7.852;2023-09-18T05:24:07;5.45;;;2.00;;
29218;SDS011;16421;50.202;7.852;2023-09-18T05:29:12;5.30;;;1.90;;
29218;SDS011;16421;50.202;7.852;2023-09-18T05:39:19;2.95;;;1.20;;
29218;SDS011;16421;50.202;7.852;2023-09-18T05:44:24;6.95;;;1.83;;
29218;SDS011;16421;50.202;7.852;2023-09-18T05:49:27;5.47;;;2.03;;
29218;SDS011;16421;50.202;7.852;2023-09-18T05:54:31;6.35;;;1.55;;
29218;SDS011;16421;50.202;7.852;2023-09-18T05:59:36;4.80;;;1.73;;
29218;SDS011;16421;50.202;7.852;2023-09-18T06:04:39;7.10;;;1.77;;
29218;SDS011;16421;50.202;7.852;2023-09-18T06:09:43;8.48;;;1.88;;
29218;SDS011;16421;50.202;7.852;2023-09-18T06:14:48;5.93;;;1.70;;
29218;SDS011;16421;50.202;7.852;2023-09-18T06:19:51;6.25;;;1.63;;
29218;SDS011;16421;50.202;7.852;2023-09-18T06:24:54;4.95;;;1.20;;
29218;SDS011;16421;50.202;7.852;2023-09-18T06:29:59;3.92;;;1.10;;
29218;SDS011;16421;50.202;7.852;2023-09-18T06:35:03;4.17;;;1.50;;
29218;SDS011;16421;50.202;7.852;2023-09-18T06:40:07;2.58;;;1.20;;
29218;SDS011;16421;50.202;7.852;2023-09-18T06:45:13;4.55;;;0.90;;
29218;SDS011;16421;50.202;7.852;2023-09-18T06:50:16;3.75;;;1.38;;
29218;SDS011;16421;50.202;7.852;2023-09-18T06:55:20;4.72;;;1.45;;
29218;SDS011;16421;50.202;7.852;2023-09-18T07:00:24;1.90;;;1.00;;
29218;SDS011;16421;50.202;7.852;2023-09-18T07:05:28;5.00;;;1.30;;
29218;SDS011;16421;50.202;7.852;2023-09-18T07:10:31;4.32;;;1.45;;
29218;SDS011;16421;50.202;7.852;2023-09-18T07:15:36;2.33;;;1.02;;
29218;SDS011;16421;50.202;7.852;2023-09-18T07:20:39;1.55;;;1.05;;
29218;SDS011;16421;50.202;7.852;2023-09-18T07:25:43;5.63;;;1.40;;
29218;SDS011;16421;50.202;7.852;2023-09-18T07:30:47;3.47;;;1.40;;
29218;SDS011;16421;50.202;7.852;2023-09-18T07:35:51;2.72;;;0.82;;
29218;SDS011;16421;50.202;7.852;2023-09-18T07:40:54;2.58;;;0.88;;
29218;SDS011;16421;50.202;7.852;2023-09-18T07:45:59;4.10;;;1.50;;
29218;SDS011;16421;50.202;7.852;2023-09-18T07:51:03;2.77;;;1.10;;
29218;SDS011;16421;50.202;7.852;2023-09-18T07:56:06;2.50;;;0.90;;
29218;SDS011;16421;50.202;7.852;2023-09-18T08:01:11;2.95;;;1.08;;
29218;SDS011;16421;50.202;7.852;2023-09-18T08:06:17;2.35;;;0.68;;
29218;SDS011;16421;50.202;7.852;2023-09-18T08:11:20;2.60;;;1.23;;
29218;SDS011;16421;50.202;7.852;2023-09-18T08:16:25;3.08;;;1.20;;
29218;SDS011;16421;50.202;7.852;2023-09-18T08:21:29;1.57;;;0.90;;
29218;SDS011;16421;50.202;7.852;2023-09-18T08:26:33;2.22;;;0.88;;
29218;SDS011;16421;50.202;7.852;2023-09-18T08:31:37;3.72;;;0.98;;
29218;SDS011;16421;50.202;7.852;2023-09-18T08:36:41;3.75;;;1.00;;
29218;SDS011;16421;50.202;7.852;2023-09-18T08:41:44;1.10;;;0.55;;
29218;SDS011;16421;50.202;7.852;2023-09-18T08:46:51;5.18;;;1.10;;
29218;SDS011;16421;50.202;7.852;2023-09-18T08:51:55;1.52;;;0.70;;
29218;SDS011;16421;50.202;7.852;2023-09-18T08:56:59;1.17;;;0.70;;
29218;SDS011;16421;50.202;7.852;2023-09-18T09:02:04;1.25;;;0.68;;
29218;SDS011;16421;50.202;7.852;2023-09-18T09:07:08;2.38;;;0.82;;
29218;SDS011;16421;50.202;7.852;2023-09-18T09:12:11;1.35;;;0.80;;
29218;SDS011;16421;50.202;7.852;2023-09-18T09:17:19;1.73;;;0.90;;
29218;SDS011;16421;50.202;7.852;2023-09-18T09:22:22;2.13;;;0.82;;
29218;SDS011;16421;50.202;7.852;2023-09-18T09:27:26;3.88;;;1.17;;
29218;SDS011;16421;50.202;7.852;2023-09-18T09:32:31;1.90;;;0.80;;
29218;SDS011;16421;50.202;7.852;2023-09-18T09:37:35;1.83;;;1.10;;
29218;SDS011;16421;50.202;7.852;2023-09-18T09:42:38;2.00;;;0.82;;
29218;SDS011;16421;50.202;7.852;2023-09-18T09:47:44;1.73;;;0.82;;
29218;SDS011;16421;50.202;7.852;2023-09-18T09:52:48;0.85;;;0.65;;
29218;SDS011;16421;50.202;7.852;2023-09-18T09:57:53;1.58;;;0.70;;
29218;SDS011;16421;50.202;7.852;2023-09-18T10:03:03;1.35;;;0.80;;
29218;SDS011;16421;50.202;7.852;2023-09-18T10:08:07;2.42;;;0.70;;
29218;SDS011;16421;50.202;7.852;2023-09-18T10:13:14;0.73;;;0.63;;
29218;SDS011;16421;50.202;7.852;2023-09-18T10:18:25;1.13;;;0.70;;
29218;SDS011;16421;50.202;7.852;2023-09-18T10:23:34;2.47;;;1.00;;
29218;SDS011;16421;50.202;7.852;2023-09-18T10:28:48;2.35;;;1.00;;
29218;SDS011;16421;50.202;7.852;2023-09-18T10:33:55;1.70;;;0.90;;
29218;SDS011;16421;50.202;7.852;2023-09-18T10:38:59;2.13;;;1.02;;
29218;SDS011;16421;50.202;7.852;2023-09-18T10:44:09;0.90;;;0.90;;
29218;SDS011;16421;50.202;7.852;2023-09-18T10:49:15;1.55;;;1.00;;
29218;SDS011;16421;50.202;7.852;2023-09-18T10:54:20;1.20;;;0.90;;
29218;SDS011;16421;50.202;7.852;2023-09-18T10:59:25;1.60;;;1.00;;
29218;SDS011;16421;50.202;7.852;2023-09-18T11:04:32;0.90;;;0.65;;
29218;SDS011;16421;50.202;7.852;2023-09-18T11:09:42;2.42;;;1.08;;
29218;SDS011;16421;50.202;7.852;2023-09-18T11:14:47;2.17;;;0.80;;
29218;SDS011;16421;50.202;7.852;2023-09-18T11:19:56;0.93;;;0.70;;
29218;SDS011;16421;50.202;7.852;2023-09-18T11:30:32;3.00;;;1.13;;
29218;SDS011;16421;50.202;7.852;2023-09-18T11:35:39;1.02;;;0.80;;
29218;SDS011;16421;50.202;7.852;2023-09-18T11:40:54;1.45;;;1.00;;
29218;SDS011;16421;50.202;7.852;2023-09-18T11:45:58;1.08;;;0.60;;
29218;SDS011;16421;50.202;7.852;2023-09-18T11:51:06;1.13;;;0.40;;
29218;SDS011;16421;50.202;7.852;2023-09-18T11:56:12;0.50;;;0.50;;
29218;SDS011;16421;50.202;7.852;2023-09-18T12:01:19;1.52;;;0.60;;
29218;SDS011;16421;50.202;7.852;2023-09-18T12:06:25;0.80;;;0.63;;
29218;SDS011;16421;50.202;7.852;2023-09-18T12:11:28;2.50;;;1.00;;
29218;SDS011;16421;50.202;7.852;2023-09-18T12:16:37;1.63;;;0.80;;
29218;SDS011;16421;50.202;7.852;2023-09-18T12:21:42;3.00;;;0.65;;
29218;SDS011;16421;50.202;7.852;2023-09-18T12:26:48;2.20;;;0.80;;
29218;SDS011;16421;50.202;7.852;2023-09-18T12:31:52;2.53;;;1.15;;
29218;SDS011;16421;50.202;7.852;2023-09-18T12:36:58;2.38;;;1.10;;
29218;SDS011;16421;50.202;7.852;2023-09-18T12:42:02;2.80;;;1.02;;
29218;SDS011;16421;50.202;7.852;2023-09-18T12:47:06;1.75;;;0.73;;
29218;SDS011;16421;50.202;7.852;2023-09-18T12:52:11;1.55;;;0.80;;
29218;SDS011;16421;50.202;7.852;2023-09-18T12:57:15;2.38;;;0.90;;
29218;SDS011;16421;50.202;7.852;2023-09-18T13:02:19;1.67;;;1.10;;
29218;SDS011;16421;50.202;7.852;2023-09-18T13:07:23;1.95;;;0.80;;
29218;SDS011;16421;50.202;7.852;2023-09-18T13:12:38;1.67;;;0.90;;
29218;SDS011;16421;50.202;7.852;2023-09-18T13:17:45;2.63;;;1.00;;
29218;SDS011;16421;50.202;7.852;2023-09-18T13:22:51;2.55;;;0.77;;
29218;SDS011;16421;50.202;7.852;2023-09-18T13:27:56;1.08;;;0.73;;
29218;SDS011;16421;50.202;7.852;2023-09-18T13:33:03;3.00;;;0.70;;
29218;SDS011;16421;50.202;7.852;2023-09-18T13:38:10;1.35;;;0.47;;
29218;SDS011;16421;50.202;7.852;2023-09-18T13:43:16;1.77;;;0.70;;
29218;SDS011;16421;50.202;7.852;2023-09-18T13:48:23;1.00;;;0.80;;
29218;SDS011;16421;50.202;7.852;2023-09-18T13:53:28;2.47;;;0.68;;
29218;SDS011;16421;50.202;7.852;2023-09-18T13:58:32;1.17;;;0.68;;
29218;SDS011;16421;50.202;7.852;2023-09-18T14:03:37;2.30;;;0.80;;
29218;SDS011;16421;50.202;7.852;2023-09-18T14:08:44;1.65;;;0.80;;
29218;SDS011;16421;50.202;7.852;2023-09-18T14:13:47;1.37;;;0.90;;
29218;SDS011;16421;50.202;7.852;2023-09-18T14:18:51;1.30;;;0.80;;
29218;SDS011;16421;50.202;7.852;2023-09-18T14:23:56;1.40;;;0.77;;
29218;SDS011;16421;50.202;7.852;2023-09-18T14:29:00;3.33;;;0.90;;
29218;SDS011;16421;50.202;7.852;2023-09-18T14:34:03;0.80;;;0.70;;
29218;SDS011;16421;50.202;7.852;2023-09-18T14:39:09;0.73;;;0.65;;
29218;SDS011;16421;50.202;7.852;2023-09-18T14:44:13;2.35;;;0.98;;
29218;SDS011;16421;50.202;7.852;2023-09-18T14:49:17;1.67;;;0.70;;
29218;SDS011;16421;50.202;7.852;2023-09-18T14:54:21;2.08;;;1.05;;
29218;SDS011;16421;50.202;7.852;2023-09-18T15:04:36;0.98;;;0.88;;
29218;SDS011;16421;50.202;7.852;2023-09-18T15:09:40;1.50;;;0.82;;
29218;SDS011;16421;50.202;7.852;2023-09-18T15:14:43;1.75;;;0.93;;
29218;SDS011;16421;50.202;7.852;2023-09-18T15:19:47;1.50;;;1.15;;
29218;SDS011;16421;50.202;7.852;2023-09-18T15:24:57;1.02;;;0.68;;
29218;SDS011;16421;50.202;7.852;2023-09-18T15:30:03;0.75;;;0.68;;
29218;SDS011;16421;50.202;7.852;2023-09-18T15:35:07;0.65;;;0.50;;
29218;SDS011;16421;50.202;7.852;2023-09-18T15:40:12;1.30;;;0.65;;
29218;SDS011;16421;50.202;7.852;2023-09-18T15:45:17;0.70;;;0.50;;
29218;SDS011;16421;50.202;7.852;2023-09-18T15:50:21;0.90;;;0.40;;
29218;SDS011;16421;50.202;7.852;2023-09-18T15:55:26;1.15;;;0.50;;
29218;SDS011;16421;50.202;7.852;2023-09-18T16:00:29;0.73;;;0.57;;
29218;SDS011;16421;50.202;7.852;2023-09-18T16:05:34;2.95;;;0.82;;
29218;SDS011;16421;50.202;7.852;2023-09-18T16:10:38;2.63;;;1.13;;
29218;SDS011;16421;50.202;7.852;2023-09-18T16:15:42;1.05;;;0.63;;
29218;SDS011;16421;50.202;7.852;2023-09-18T16:20:47;1.27;;;0.57;;
29218;SDS011;16421;50.202;7.852;2023-09-18T16:25:52;3.35;;;0.40;;
29218;SDS011;16421;50.202;7.852;2023-09-18T16:30:55;2.60;;;0.50;;
29218;SDS011;16421;50.202;7.852;2023-09-18T16:36:05;0.60;;;0.30;;
29218;SDS011;16421;50.202;7.852;2023-09-18T16:41:10;0.77;;;0.63;;
29218;SDS011;16421;50.202;7.852;2023-09-18T16:46:13;1.13;;;0.50;;
29218;SDS011;16421;50.202;7.852;2023-09-18T16:51:18;1.98;;;0.80;;
29218;SDS011;16421;50.202;7.852;2023-09-18T16:56:23;1.05;;;0.90;;
29218;SDS011;16421;50.202;7.852;2023-09-18T17:01:26;1.65;;;0.70;;
29218;SDS011;16421;50.202;7.852;2023-09-18T17:06:30;2.40;;;0.60;;
29218;SDS011;16421;50.202;7.852;2023-09-18T17:16:40;1.87;;;0.70;;
29218;SDS011;16421;50.202;7.852;2023-09-18T17:21:44;0.93;;;0.68;;
29218;SDS011;16421;50.202;7.852;2023-09-18T17:26:48;1.05;;;0.60;;
29218;SDS011;16421;50.202;7.852;2023-09-18T17:31:52;1.17;;;0.60;;
29218;SDS011;16421;50.202;7.852;2023-09-18T17:36:55;0.95;;;0.68;;
29218;SDS011;16421;50.202;7.852;2023-09-18T17:41:59;1.67;;;0.75;;
29218;SDS011;16421;50.202;7.852;2023-09-18T17:47:08;0.82;;;0.55;;
29218;SDS011;16421;50.202;7.852;2023-09-18T17:52:11;1.40;;;0.70;;
29218;SDS011;16421;50.202;7.852;2023-09-18T17:57:16;1.00;;;0.70;;
29218;SDS011;16421;50.202;7.852;2023-09-18T18:02:20;1.40;;;0.70;;
29218;SDS011;16421;50.202;7.852;2023-09-18T18:07:23;1.08;;;0.60;;
29218;SDS011;16421;50.202;7.852;2023-09-18T18:12:28;1.60;;;0.50;;
29218;SDS011;16421;50.202;7.852;2023-09-18T18:17:31;1.73;;;0.80;;
29218;SDS011;16421;50.202;7.852;2023-09-18T18:22:36;1.58;;;0.70;;
29218;SDS011;16421;50.202;7.852;2023-09-18T18:27:40;0.80;;;0.50;;
29218;SDS011;16421;50.202;7.852;2023-09-18T18:32:45;1.25;;;0.50;;
29218;SDS011;16421;50.202;7.852;2023-09-18T18:37:49;0.70;;;0.60;;
29218;SDS011;16421;50.202;7.852;2023-09-18T18:42:54;0.43;;;0.38;;
29218;SDS011;16421;50.202;7.852;2023-09-18T18:47:58;1.10;;;0.50;;
29218;SDS011;16421;50.202;7.852;2023-09-18T18:53:02;0.38;;;0.35;;
29218;SDS011;16421;50.202;7.852;2023-09-18T18:58:07;0.77;;;0.43;;
29218;SDS011;16421;50.202;7.852;2023-09-18T19:03:10;1.08;;;0.32;;
29218;SDS011;16421;50.202;7.852;2023-09-18T19:08:13;0.82;;;0.50;;
29218;SDS011;16421;50.202;7.852;2023-09-18T19:13:18;1.83;;;0.60;;
29218;SDS011;16421;50.202;7.852;2023-09-18T19:18:22;1.50;;;0.53;;
29218;SDS011;16421;50.202;7.852;2023-09-18T19:23:27;0.93;;;0.40;;
29218;SDS011;16421;50.202;7.852;2023-09-18T19:28:32;0.65;;;0.40;;
29218;SDS011;16421;50.202;7.852;2023-09-18T19:33:35;0.50;;;0.50;;
29218;SDS011;16421;50.202;7.852;2023-09-18T19:38:40;1.17;;;0.75;;
29218;SDS011;16421;50.202;7.852;2023-09-18T19:43:45;1.67;;;0.75;;
29218;SDS011;16421;50.202;7.852;2023-09-18T19:48:49;0.98;;;0.50;;
29218;SDS011;16421;50.202;7.852;2023-09-18T19:53:52;1.15;;;0.68;;
29218;SDS011;16421;50.202;7.852;2023-09-18T19:58:57;0.35;;;0.35;;
29218;SDS011;16421;50.202;7.852;2023-09-18T20:04:01;0.82;;;0.30;;
29218;SDS011;16421;50.202;7.852;2023-09-18T20:09:06;1.58;;;0.70;;
29218;SDS011;16421;50.202;7.852;2023-09-18T20:14:12;3.83;;;1.20;;
29218;SDS011;16421;50.202;7.852;2023-09-18T20:19:21;2.22;;;0.70;;
29218;SDS011;16421;50.202;7.852;2023-09-18T20:24:24;1.67;;;0.60;;
29218;SDS011;16421;50.202;7.852;2023-09-18T20:29:30;1.70;;;0.43;;
29218;SDS011;16421;50.202;7.852;2023-09-18T20:34:33;1.35;;;0.43;;
29218;SDS011;16421;50.202;7.852;2023-09-18T20:39:37;0.35;;;0.20;;
29218;SDS011;16421;50.202;7.852;2023-09-18T20:44:41;0.32;;;0.30;;
29218;SDS011;16421;50.202;7.852;2023-09-18T20:49:45;0.75;;;0.30;;
29218;SDS011;16421;50.202;7.852;2023-09-18T20:54:49;2.05;;;0.45;;
29218;SDS011;16421;50.202;7.852;2023-09-18T20:59:54;0.52;;;0.50;;
29218;SDS011;16421;50.202;7.852;2023-09-18T21:04:57;0.98;;;0.40;;
29218;SDS011;16421;50.202;7.852;2023-09-18T21:10:01;0.32;;;0.32;;
29218;SDS011;16421;50.202;7.852;2023-09-18T21:15:08;0.30;;;0.20;;
29218;SDS011;16421;50.202;7.852;2023-09-18T21:20:11;0.40;;;0.25;;
29218;SDS011;16421;50.202;7.852;2023-09-18T21:25:15;0.90;;;0.40;;
29218;SDS011;16421;50.202;7.852;2023-09-18T21:30:19;0.40;;;0.40;;
29218;SDS011;16421;50.202;7.852;2023-09-18T21:35:23;0.52;;;0.30;;
29218;SDS011;16421;50.202;7.852;2023-09-18T21:40:29;1.08;;;0.30;;
29218;SDS011;16421;50.202;7.852;2023-09-18T21:45:34;1.33;;;0.30;;
29218;SDS011;16421;50.202;7.852;2023-09-18T21:50:38;0.28;;;0.28;;
29218;SDS011;16421;50.202;7.852;2023-09-18T21:55:44;0.68;;;0.40;;
29218;SDS011;16421;50.202;7.852;2023-09-18T22:00:55;1.08;;;0.40;;
29218;SDS011;16421;50.202;7.852;2023-09-18T22:05:58;0.40;;;0.40;;
29218;SDS011;16421;50.202;7.852;2023-09-18T22:11:02;1.13;;;0.50;;
29218;SDS011;16421;50.202;7.852;2023-09-18T22:16:08;0.57;;;0.40;;
29218;SDS011;16421;50.202;7.852;2023-09-18T22:21:11;0.57;;;0.38;;
29218;SDS011;16421;50.202;7.852;2023-09-18T22:26:15;0.80;;;0.50;;
29218;SDS011;16421;50.202;7.852;2023-09-18T22:31:19;0.98;;;0.30;;
29218;SDS011;16421;50.202;7.852;2023-09-18T22:36:23;0.65;;;0.40;;
29218;SDS011;16421;50.202;7.852;2023-09-18T22:57:43;0.70;;;0.47;;
29218;SDS011;16421;50.202;7.852;2023-09-18T23:02:48;0.93;;;0.52;;
29218;SDS011;16421;50.202;7.852;2023-09-18T23:07:53;1.10;;;0.70;;
29218;SDS011;16421;50.202;7.852;2023-09-18T23:18:05;0.88;;;0.52;;
29218;SDS011;16421;50.202;7.852;2023-09-18T23:23:08;1.02;;;0.50;;
29218;SDS011;16421;50.202;7.852;2023-09-18T23:28:13;0.88;;;0.50;;
29218;SDS011;16421;50.202;7.852;2023-09-18T23:33:17;0.50;;;0.40;;
29218;SDS011;16421;50.202;7.852;2023-09-18T23:38:22;1.08;;;0.60;;
29218;SDS011;16421;50.202;7.852;2023-09-18T23:43:28;0.43;;;0.40;;
29218;SDS011;16421;50.202;7.852;2023-09-18T23:48:37;0.73;;;0.50;;
29218;SDS011;16421;50.202;7.852;2023-09-18T23:58:47;0.30;;;0.30;;
